sensor_id;sensor_type;location;lat;lon;timestamp;pressure;altitude;pressure_sealevel;temperature;humidity
29935;BME280;19905;53.370;-6.314;2023-10-08T00:02:05;101699.22;;;16.63;100.00
29935;BME280;19905;53.370;-6.314;2023-10-08T00:04:34;101702.28;;;16.58;100.00
29935;BME280;19905;53.370;-6.314;2023-10-08T00:07:04;101695.16;;;16.59;100.00
29935;BME280;19905;53.370;-6.314;2023-10-08T00:09:35;101708.63;;;16.67;100.00
29935;BME280;19905;53.370;-6.314;2023-10-08T00:12:06;101710.00;;;16.72;100.00
29935;BME280;19905;53.370;-6.314;2023-10-08T00:14:35;101706.19;;;16.75;100.00
29935;BME280;19905;53.370;-6.314;2023-10-08T00:17:12;101704.50;;;16.74;100.00
29935;BME280;19905;53.370;-6.314;2023-10-08T00:19:45;101707.53;;;16.69;100.00
29935;BME280;19905;53.370;-6.314;2023-10-08T00:22:20;101702.47;;;16.66;100.00
29935;BME280;19905;53.370;-6.314;2023-10-08T00:24:53;101705.03;;;16.68;100.00
29935;BME280;19905;53.370;-6.314;2023-10-08T00:27:26;101709.78;;;16.64;100.00
29935;BME280;19905;53.370;-6.314;2023-10-08T00:30:02;101722.97;;;16.66;100.00
29935;BME280;19905;53.370;-6.314;2023-10-08T00:32:45;101730.66;;;16.59;100.00
29935;BME280;19905;53.370;-6.314;2023-10-08T00:35:14;101727.25;;;16.57;100.00
29935;BME280;19905;53.370;-6.314;2023-10-08T00:37:47;101727.41;;;16.56;100.00
29935;BME280;19905;53.370;-6.314;2023-10-08T00:40:18;101726.75;;;16.42;100.00
29935;BME280;19905;53.370;-6.314;2023-10-08T00:42:50;101727.00;;;16.39;100.00
29935;BME280;19905;53.370;-6.314;2023-10-08T00:45:23;101728.97;;;16.37;100.00
29935;BME280;19905;53.370;-6.314;2023-10-08T00:47:57;101725.97;;;16.31;100.00
29935;BME280;19905;53.370;-6.314;2023-10-08T00:50:28;101729.66;;;16.39;100.00
29935;BME280;19905;53.370;-6.314;2023-10-08T00:53:10;101727.28;;;16.36;100.00
29935;BME280;19905;53.370;-6.314;2023-10-08T00:55:49;101728.44;;;16.43;100.00
29935;BME280;19905;53.370;-6.314;2023-10-08T00:58:23;101721.41;;;16.42;100.00
29935;BME280;19905;53.370;-6.314;2023-10-08T01:00:55;101711.84;;;16.40;100.00
29935;BME280;19905;53.370;-6.314;2023-10-08T01:03:33;101717.31;;;16.38;100.00
29935;BME280;19905;53.370;-6.314;2023-10-08T01:06:03;101725.00;;;16.32;100.00
29935;BME280;19905;53.370;-6.314;2023-10-08T01:08:37;101728.16;;;16.25;100.00
29935;BME280;19905;53.370;-6.314;2023-10-08T01:11:20;101730.53;;;16.19;100.00
29935;BME280;19905;53.370;-6.314;2023-10-08T01:14:01;101734.19;;;16.07;100.00
29935;BME280;19905;53.370;-6.314;2023-10-08T01:16:35;101735.56;;;16.01;100.00
29935;BME280;19905;53.370;-6.314;2023-10-08T01:19:06;101727.44;;;16.02;100.00
29935;BME280;19905;53.370;-6.314;2023-10-08T01:21:40;101728.28;;;16.03;100.00
29935;BME280;19905;53.370;-6.314;2023-10-08T01:24:10;101727.81;;;15.98;100.00
29935;BME280;19905;53.370;-6.314;2023-10-08T01:26:43;101721.78;;;15.96;100.00
29935;BME280;19905;53.370;-6.314;2023-10-08T01:29:12;101724.09;;;15.89;100.00
29935;BME280;19905;53.370;-6.314;2023-10-08T01:31:47;101731.00;;;15.92;100.00
29935;BME280;19905;53.370;-6.314;2023-10-08T01:34:17;101722.41;;;15.88;100.00
29935;BME280;19905;53.370;-6.314;2023-10-08T01:36:53;101725.06;;;15.88;100.00
29935;BME280;19905;53.370;-6.314;2023-10-08T01:39:24;101733.91;;;15.89;100.00
29935;BME280;19905;53.370;-6.314;2023-10-08T01:41:54;101731.13;;;15.90;100.00
29935;BME280;19905;53.370;-6.314;2023-10-08T01:44:23;101734.75;;;15.89;100.00
29935;BME280;19905;53.370;-6.314;2023-10-08T01:46:53;101731.00;;;15.92;100.00
29935;BME280;19905;53.370;-6.314;2023-10-08T01:49:24;101739.97;;;15.91;100.00
29935;BME280;19905;53.370;-6.314;2023-10-08T01:52:00;101732.47;;;15.85;100.00
29935;BME280;19905;53.370;-6.314;2023-10-08T01:54:39;101743.38;;;15.82;100.00
29935;BME280;19905;53.370;-6.314;2023-10-08T01:57:09;101731.91;;;15.70;100.00
29935;BME280;19905;53.370;-6.314;2023-10-08T01:59:40;101738.91;;;15.71;100.00
29935;BME280;19905;53.370;-6.314;2023-10-08T02:02:14;101746.81;;;15.50;100.00
29935;BME280;19905;53.370;-6.314;2023-10-08T02:04:42;101738.56;;;15.53;100.00
29935;BME280;19905;53.370;-6.314;2023-10-08T02:07:12;101744.50;;;15.57;100.00
29935;BME280;19905;53.370;-6.314;2023-10-08T02:09:42;101747.53;;;15.63;100.00
29935;BME280;19905;53.370;-6.314;2023-10-08T02:12:11;101738.59;;;15.64;100.00
29935;BME280;19905;53.370;-6.314;2023-10-08T02:14:43;101737.25;;;15.59;100.00
29935;BME280;19905;53.370;-6.314;2023-10-08T02:17:14;101727.16;;;15.62;100.00
29935;BME280;19905;53.370;-6.314;2023-10-08T02:19:43;101726.31;;;15.62;100.00
29935;BME280;19905;53.370;-6.314;2023-10-08T02:22:12;101725.47;;;15.61;100.00
29935;BME280;19905;53.370;-6.314;2023-10-08T02:24:41;101741.13;;;15.55;100.00
29935;BME280;19905;53.370;-6.314;2023-10-08T02:27:11;101762.94;;;15.37;100.00
29935;BME280;19905;53.370;-6.314;2023-10-08T02:29:42;101760.41;;;15.36;100.00
29935;BME280;19905;53.370;-6.314;2023-10-08T02:32:11;101755.19;;;15.45;100.00
29935;BME280;19905;53.370;-6.314;2023-10-08T02:34:41;101751.06;;;15.41;100.00
29935;BME280;19905;53.370;-6.314;2023-10-08T02:37:10;101773.34;;;15.29;100.00
29935;BME280;19905;53.370;-6.314;2023-10-08T02:39:40;101765.22;;;15.19;100.00
29935;BME280;19905;53.370;-6.314;2023-10-08T02:42:11;101767.19;;;15.17;100.00
29935;BME280;19905;53.370;-6.314;2023-10-08T02:44:41;101760.03;;;15.18;100.00
29935;BME280;19905;53.370;-6.314;2023-10-08T02:47:12;101760.03;;;15.18;100.00
29935;BME280;19905;53.370;-6.314;2023-10-08T02:49:44;101757.63;;;15.15;100.00
29935;BME280;19905;53.370;-6.314;2023-10-08T02:52:18;101753.13;;;15.15;100.00
29935;BME280;19905;53.370;-6.314;2023-10-08T02:54:47;101744.31;;;15.15;100.00
29935;BME280;19905;53.370;-6.314;2023-10-08T02:57:21;101746.25;;;15.13;100.00
29935;BME280;19905;53.370;-6.314;2023-10-08T02:59:50;101742.84;;;15.11;100.00
29935;BME280;19905;53.370;-6.314;2023-10-08T03:02:22;101736.47;;;15.13;100.00
29935;BME280;19905;53.370;-6.314;2023-10-08T03:04:52;101732.81;;;15.14;100.00
29935;BME280;19905;53.370;-6.314;2023-10-08T03:07:21;101729.31;;;15.14;100.00
29935;BME280;19905;53.370;-6.314;2023-10-08T03:10:00;101729.31;;;14.91;100.00
29935;BME280;19905;53.370;-6.314;2023-10-08T03:12:36;101727.25;;;14.84;100.00
29935;BME280;19905;53.370;-6.314;2023-10-08T03:15:06;101718.91;;;14.77;100.00
29935;BME280;19905;53.370;-6.314;2023-10-08T03:17:42;101727.59;;;14.68;100.00
29935;BME280;19905;53.370;-6.314;2023-10-08T03:20:18;101723.13;;;14.68;100.00
29935;BME280;19905;53.370;-6.314;2023-10-08T03:22:57;101724.81;;;14.58;100.00
29935;BME280;19905;53.370;-6.314;2023-10-08T03:25:25;101741.53;;;14.47;100.00
29935;BME280;19905;53.370;-6.314;2023-10-08T03:27:56;101741.16;;;14.41;100.00
29935;BME280;19905;53.370;-6.314;2023-10-08T03:30:26;101736.69;;;14.41;100.00
29935;BME280;19905;53.370;-6.314;2023-10-08T03:32:54;101736.88;;;14.51;100.00
29935;BME280;19905;53.370;-6.314;2023-10-08T03:35:23;101727.81;;;14.54;100.00
29935;BME280;19905;53.370;-6.314;2023-10-08T03:37:59;101716.84;;;14.58;100.00
29935;BME280;19905;53.370;-6.314;2023-10-08T03:40:55;101724.88;;;14.45;100.00
29935;BME280;19905;53.370;-6.314;2023-10-08T03:43:34;101727.75;;;14.42;100.00
29935;BME280;19905;53.370;-6.314;2023-10-08T03:46:14;101726.69;;;14.45;100.00
29935;BME280;19905;53.370;-6.314;2023-10-08T03:48:43;101727.03;;;14.40;100.00
29935;BME280;19905;53.370;-6.314;2023-10-08T03:51:12;101730.41;;;14.42;100.00
29935;BME280;19905;53.370;-6.314;2023-10-08T03:53:42;101733.31;;;14.39;100.00
29935;BME280;19905;53.370;-6.314;2023-10-08T03:56:25;101718.72;;;14.45;100.00
29935;BME280;19905;53.370;-6.314;2023-10-08T03:58:58;101713.69;;;14.53;100.00
29935;BME280;19905;53.370;-6.314;2023-10-08T04:01:30;101703.47;;;14.47;100.00
29935;BME280;19905;53.370;-6.314;2023-10-08T04:04:00;101695.97;;;14.41;100.00
29935;BME280;19905;53.370;-6.314;2023-10-08T04:06:29;101698.38;;;14.33;100.00
29935;BME280;19905;53.370;-6.314;2023-10-08T04:09:06;101696.41;;;14.23;100.00
29935;BME280;19905;53.370;-6.314;2023-10-08T04:11:46;101705.97;;;14.26;100.00
29935;BME280;19905;53.370;-6.314;2023-10-08T04:14:27;101692.44;;;14.29;100.00
29935;BME280;19905;53.370;-6.314;2023-10-08T04:16:58;101696.81;;;14.30;100.00
29935;BME280;19905;53.370;-6.314;2023-10-08T04:19:26;101695.22;;;14.28;100.00
29935;BME280;19905;53.370;-6.314;2023-10-08T04:21:55;101699.47;;;14.30;100.00
29935;BME280;19905;53.370;-6.314;2023-10-08T04:24:25;101703.31;;;14.26;100.00
29935;BME280;19905;53.370;-6.314;2023-10-08T04:27:02;101710.19;;;14.17;100.00
29935;BME280;19905;53.370;-6.314;2023-10-08T04:29:38;101713.81;;;14.16;100.00
29935;BME280;19905;53.370;-6.314;2023-10-08T04:32:09;101713.69;;;14.18;100.00
29935;BME280;19905;53.370;-6.314;2023-10-08T04:34:46;101705.00;;;14.27;100.00
29935;BME280;19905;53.370;-6.314;2023-10-08T04:37:16;101702.06;;;14.19;100.00
29935;BME280;19905;53.370;-6.314;2023-10-08T04:39:51;101701.97;;;14.20;100.00
29935;BME280;19905;53.370;-6.314;2023-10-08T04:42:29;101707.41;;;14.19;100.00
29935;BME280;19905;53.370;-6.314;2023-10-08T04:45:00;101708.09;;;14.10;100.00
29935;BME280;19905;53.370;-6.314;2023-10-08T04:47:29;101717.25;;;14.06;100.00
29935;BME280;19905;53.370;-6.314;2023-10-08T04:50:01;101719.06;;;14.05;100.00
29935;BME280;19905;53.370;-6.314;2023-10-08T04:52:33;101718.00;;;14.08;100.00
29935;BME280;19905;53.370;-6.314;2023-10-08T04:55:14;101711.00;;;14.07;100.00
29935;BME280;19905;53.370;-6.314;2023-10-08T04:57:47;101721.72;;;14.05;100.00
29935;BME280;19905;53.370;-6.314;2023-10-08T05:00:19;101717.38;;;14.04;100.00
29935;BME280;19905;53.370;-6.314;2023-10-08T05:03:09;101720.19;;;14.14;100.00
29935;BME280;19905;53.370;-6.314;2023-10-08T05:05:43;101715.63;;;14.16;100.00
29935;BME280;19905;53.370;-6.314;2023-10-08T05:08:35;101710.19;;;14.17;100.00
29935;BME280;19905;53.370;-6.314;2023-10-08T05:11:14;101726.97;;;14.18;100.00
29935;BME280;19905;53.370;-6.314;2023-10-08T05:13:53;101734.78;;;14.08;100.00
29935;BME280;19905;53.370;-6.314;2023-10-08T05:16:32;101738.75;;;14.03;100.00
29935;BME280;19905;53.370;-6.314;2023-10-08T05:19:27;101739.19;;;13.96;100.00
29935;BME280;19905;53.370;-6.314;2023-10-08T05:22:15;101748.13;;;13.95;100.00
29935;BME280;19905;53.370;-6.314;2023-10-08T05:25:14;101745.59;;;13.94;100.00
29935;BME280;19905;53.370;-6.314;2023-10-08T05:28:05;101734.00;;;13.95;100.00
29935;BME280;19905;53.370;-6.314;2023-10-08T05:30:38;101739.66;;;13.90;100.00
29935;BME280;19905;53.370;-6.314;2023-10-08T05:33:16;101729.38;;;13.86;100.00
29935;BME280;19905;53.370;-6.314;2023-10-08T05:36:13;101738.81;;;13.90;100.00
29935;BME280;19905;53.370;-6.314;2023-10-08T05:38:55;101730.72;;;13.91;100.00
29935;BME280;19905;53.370;-6.314;2023-10-08T05:41:28;101731.13;;;13.98;100.00
29935;BME280;19905;53.370;-6.314;2023-10-08T05:43:58;101729.94;;;14.02;100.00
29935;BME280;19905;53.370;-6.314;2023-10-08T05:46:44;101723.06;;;14.11;100.00
29935;BME280;19905;53.370;-6.314;2023-10-08T05:49:21;101719.97;;;14.17;100.00
29935;BME280;19905;53.370;-6.314;2023-10-08T05:52:20;101712.00;;;14.17;100.00
29935;BME280;19905;53.370;-6.314;2023-10-08T05:55:09;101715.72;;;14.14;100.00
29935;BME280;19905;53.370;-6.314;2023-10-08T05:57:44;101707.88;;;14.13;100.00
29935;BME280;19905;53.370;-6.314;2023-10-08T06:00:21;101707.03;;;14.12;100.00
29935;BME280;19905;53.370;-6.314;2023-10-08T06:03:04;101701.09;;;14.09;100.00
29935;BME280;19905;53.370;-6.314;2023-10-08T06:05:50;101705.09;;;14.14;100.00
29935;BME280;19905;53.370;-6.314;2023-10-08T06:08:38;101697.47;;;14.10;100.00
29935;BME280;19905;53.370;-6.314;2023-10-08T06:11:18;101700.38;;;14.07;100.00
29935;BME280;19905;53.370;-6.314;2023-10-08T06:14:05;101705.06;;;14.03;100.00
29935;BME280;19905;53.370;-6.314;2023-10-08T06:16:44;101711.22;;;14.04;100.00
29935;BME280;19905;53.370;-6.314;2023-10-08T06:19:22;101727.34;;;13.89;100.00
29935;BME280;19905;53.370;-6.314;2023-10-08T06:41:44;101689.53;;;13.86;100.00
29935;BME280;19905;53.370;-6.314;2023-10-08T06:44:58;101700.44;;;13.94;100.00
29935;BME280;19905;53.370;-6.314;2023-10-08T06:51:47;101721.22;;;13.76;100.00
29935;BME280;19905;53.370;-6.314;2023-10-08T06:54:49;101720.47;;;13.74;100.00
29935;BME280;19905;53.370;-6.314;2023-10-08T06:58:47;101712.09;;;13.80;100.00
29935;BME280;19905;53.370;-6.314;2023-10-08T07:01:55;101707.28;;;13.85;100.00
29935;BME280;19905;53.370;-6.314;2023-10-08T07:05:16;101708.41;;;13.94;100.00
29935;BME280;19905;53.370;-6.314;2023-10-08T07:08:21;101706.13;;;14.01;100.00
29935;BME280;19905;53.370;-6.314;2023-10-08T07:11:28;101697.97;;;14.15;100.00
29935;BME280;19905;53.370;-6.314;2023-10-08T07:14:10;101706.69;;;14.28;100.00
29935;BME280;19905;53.370;-6.314;2023-10-08T07:16:41;101710.69;;;14.34;100.00
29935;BME280;19905;53.370;-6.314;2023-10-08T07:19:18;101729.19;;;14.35;100.00
29935;BME280;19905;53.370;-6.314;2023-10-08T07:25:52;101719.63;;;14.33;100.00
29935;BME280;19905;53.370;-6.314;2023-10-08T07:28:25;101724.38;;;14.40;100.00
29935;BME280;19905;53.370;-6.314;2023-10-08T07:35:38;101722.03;;;14.60;100.00
29935;BME280;19905;53.370;-6.314;2023-10-08T07:38:45;101725.66;;;14.59;100.00
29935;BME280;19905;53.370;-6.314;2023-10-08T07:41:15;101730.00;;;14.60;100.00
29935;BME280;19905;53.370;-6.314;2023-10-08T07:43:47;101740.16;;;14.55;100.00
29935;BME280;19905;53.370;-6.314;2023-10-08T07:46:30;101735.19;;;14.50;100.00
29935;BME280;19905;53.370;-6.314;2023-10-08T07:49:02;101724.03;;;14.45;100.00
29935;BME280;19905;53.370;-6.314;2023-10-08T07:51:40;101721.03;;;14.49;100.00
29935;BME280;19905;53.370;-6.314;2023-10-08T07:54:12;101724.81;;;14.58;100.00
29935;BME280;19905;53.370;-6.314;2023-10-08T07:57:29;101739.19;;;14.56;100.00
29935;BME280;19905;53.370;-6.314;2023-10-08T08:26:56;101746.50;;;14.98;100.00
29935;BME280;19905;53.370;-6.314;2023-10-08T08:34:22;101742.22;;;15.30;100.00
29935;BME280;19905;53.370;-6.314;2023-10-08T08:37:38;101741.59;;;15.60;100.00
29935;BME280;19905;53.370;-6.314;2023-10-08T08:40:46;101737.16;;;15.92;100.00
29935;BME280;19905;53.370;-6.314;2023-10-08T08:43:32;101747.34;;;16.19;100.00
29935;BME280;19905;53.370;-6.314;2023-10-08T08:46:37;101745.88;;;16.47;100.00
29935;BME280;19905;53.370;-6.314;2023-10-08T08:49:48;101738.66;;;16.80;100.00
29935;BME280;19905;53.370;-6.314;2023-10-08T08:53:01;101741.81;;;16.95;100.00
29935;BME280;19905;53.370;-6.314;2023-10-08T08:56:08;101756.53;;;16.89;100.00
29935;BME280;19905;53.370;-6.314;2023-10-08T08:59:04;101762.72;;;16.90;100.00
29935;BME280;19905;53.370;-6.314;2023-10-08T09:02:08;101758.69;;;16.95;100.00
29935;BME280;19905;53.370;-6.314;2023-10-08T09:04:49;101758.41;;;16.98;100.00
29935;BME280;19905;53.370;-6.314;2023-10-08T09:07:25;101762.22;;;16.96;100.00
29935;BME280;19905;53.370;-6.314;2023-10-08T09:10:20;101772.59;;;16.99;100.00
29935;BME280;19905;53.370;-6.314;2023-10-08T09:40:42;101857.38;;;15.67;100.00
29935;BME280;19905;53.370;-6.314;2023-10-08T09:43:15;101846.69;;;15.78;100.00
29935;BME280;19905;53.370;-6.314;2023-10-08T09:45:47;101861.69;;;15.90;100.00
29935;BME280;19905;53.370;-6.314;2023-10-08T09:48:22;101857.91;;;15.93;100.00
29935;BME280;19905;53.370;-6.314;2023-10-08T09:50:55;101843.25;;;15.98;100.00
29935;BME280;19905;53.370;-6.314;2023-10-08T09:53:33;101826.50;;;16.08;100.00
29935;BME280;19905;53.370;-6.314;2023-10-08T09:56:14;101790.78;;;16.10;100.00
29935;BME280;19905;53.370;-6.314;2023-10-08T09:58:47;101771.97;;;16.12;100.00
29935;BME280;19905;53.370;-6.314;2023-10-08T10:01:18;101776.69;;;16.19;100.00
29935;BME280;19905;53.370;-6.314;2023-10-08T10:10:09;101732.47;;;16.38;100.00
29935;BME280;19905;53.370;-6.314;2023-10-08T10:12:59;101713.66;;;16.81;100.00
29935;BME280;19905;53.370;-6.314;2023-10-08T10:15:28;101700.41;;;17.00;100.00
29935;BME280;19905;53.370;-6.314;2023-10-08T10:18:08;101693.47;;;17.28;100.00
29935;BME280;19905;53.370;-6.314;2023-10-08T10:20:41;101692.50;;;17.39;100.00
29935;BME280;19905;53.370;-6.314;2023-10-08T10:23:37;101689.00;;;17.48;100.00
29935;BME280;19905;53.370;-6.314;2023-10-08T10:26:22;101682.84;;;17.58;100.00
29935;BME280;19905;53.370;-6.314;2023-10-08T10:29:22;101676.38;;;17.70;100.00
29935;BME280;19905;53.370;-6.314;2023-10-08T10:31:54;101679.75;;;17.72;100.00
29935;BME280;19905;53.370;-6.314;2023-10-08T10:34:25;101671.72;;;17.72;100.00
29935;BME280;19905;53.370;-6.314;2023-10-08T10:36:56;101667.00;;;17.85;100.00
29935;BME280;19905;53.370;-6.314;2023-10-08T10:39:27;101671.06;;;17.99;100.00
29935;BME280;19905;53.370;-6.314;2023-10-08T10:42:01;101670.50;;;18.15;100.00
29935;BME280;19905;53.370;-6.314;2023-10-08T10:44:36;101653.69;;;18.32;100.00
29935;BME280;19905;53.370;-6.314;2023-10-08T10:47:05;101657.06;;;18.34;100.00
29935;BME280;19905;53.370;-6.314;2023-10-08T10:49:53;101673.34;;;18.50;100.00
29935;BME280;19905;53.370;-6.314;2023-10-08T10:52:43;101698.00;;;18.54;100.00
29935;BME280;19905;53.370;-6.314;2023-10-08T10:55:20;101673.91;;;18.54;100.00
29935;BME280;19905;53.370;-6.314;2023-10-08T10:57:59;101647.91;;;18.37;100.00
29935;BME280;19905;53.370;-6.314;2023-10-08T11:00:43;101645.97;;;18.29;100.00
29935;BME280;19905;53.370;-6.314;2023-10-08T11:03:16;101654.16;;;18.18;100.00
29935;BME280;19905;53.370;-6.314;2023-10-08T11:05:48;101668.09;;;18.12;100.00
29935;BME280;19905;53.370;-6.314;2023-10-08T11:08:21;101647.00;;;17.70;100.00
29935;BME280;19905;53.370;-6.314;2023-10-08T11:10:52;101644.91;;;17.73;100.00
29935;BME280;19905;53.370;-6.314;2023-10-08T11:13:27;101661.47;;;17.58;100.00
29935;BME280;19905;53.370;-6.314;2023-10-08T11:16:06;101690.16;;;17.56;100.00
29935;BME280;19905;53.370;-6.314;2023-10-08T11:18:43;101706.03;;;17.67;100.00
29935;BME280;19905;53.370;-6.314;2023-10-08T11:21:11;101694.94;;;17.52;100.00
29935;BME280;19905;53.370;-6.314;2023-10-08T11:23:45;101697.19;;;17.57;100.00
29935;BME280;19905;53.370;-6.314;2023-10-08T11:26:23;101713.22;;;17.66;100.00
29935;BME280;19905;53.370;-6.314;2023-10-08T11:29:01;101729.41;;;17.65;100.00
29935;BME280;19905;53.370;-6.314;2023-10-08T11:31:33;101791.50;;;17.97;100.00
29935;BME280;19905;53.370;-6.314;2023-10-08T11:34:03;101784.47;;;17.96;100.00
29935;BME280;19905;53.370;-6.314;2023-10-08T11:36:37;101792.59;;;17.85;100.00
29935;BME280;19905;53.370;-6.314;2023-10-08T11:39:20;101790.09;;;17.84;100.00
29935;BME280;19905;53.370;-6.314;2023-10-08T11:41:58;101833.19;;;18.29;100.00
29935;BME280;19905;53.370;-6.314;2023-10-08T11:44:37;101801.66;;;18.42;100.00
29935;BME280;19905;53.370;-6.314;2023-10-08T11:47:09;101807.84;;;18.62;100.00
29935;BME280;19905;53.370;-6.314;2023-10-08T11:49:41;101793.03;;;18.68;100.00
29935;BME280;19905;53.370;-6.314;2023-10-08T11:52:18;101784.34;;;19.95;100.00
29935;BME280;19905;53.370;-6.314;2023-10-08T11:54:51;101749.16;;;20.78;100.00
29935;BME280;19905;53.370;-6.314;2023-10-08T11:57:20;101750.22;;;21.62;100.00
29935;BME280;19905;53.370;-6.314;2023-10-08T11:59:50;101735.72;;;22.13;100.00
29935;BME280;19905;53.370;-6.314;2023-10-08T12:02:24;101721.66;;;22.83;100.00
29935;BME280;19905;53.370;-6.314;2023-10-08T12:04:54;101721.31;;;23.33;100.00
29935;BME280;19905;53.370;-6.314;2023-10-08T12:07:26;101709.09;;;23.46;100.00
29935;BME280;19905;53.370;-6.314;2023-10-08T12:09:55;101705.38;;;24.24;100.00
29935;BME280;19905;53.370;-6.314;2023-10-08T12:12:23;101702.94;;;24.52;100.00
29935;BME280;19905;53.370;-6.314;2023-10-08T12:14:57;101686.13;;;25.30;100.00
29935;BME280;19905;53.370;-6.314;2023-10-08T12:17:29;101677.25;;;26.22;100.00
29935;BME280;19905;53.370;-6.314;2023-10-08T12:20:08;101683.50;;;25.58;100.00
29935;BME280;19905;53.370;-6.314;2023-10-08T12:22:51;101673.59;;;25.87;100.00
29935;BME280;19905;53.370;-6.314;2023-10-08T12:25:20;101675.03;;;25.47;100.00
29935;BME280;19905;53.370;-6.314;2023-10-08T12:27:49;101663.28;;;25.54;100.00
29935;BME280;19905;53.370;-6.314;2023-10-08T12:30:18;101670.88;;;25.66;100.00
29935;BME280;19905;53.370;-6.314;2023-10-08T12:33:00;101670.03;;;26.08;100.00
29935;BME280;19905;53.370;-6.314;2023-10-08T12:35:30;101675.91;;;25.69;100.00
29935;BME280;19905;53.370;-6.314;2023-10-08T12:37:59;101665.28;;;25.67;100.00
29935;BME280;19905;53.370;-6.314;2023-10-08T12:40:28;101673.34;;;25.82;100.00
29935;BME280;19905;53.370;-6.314;2023-10-08T12:43:09;101672.09;;;26.06;100.00
29935;BME280;19905;53.370;-6.314;2023-10-08T12:45:38;101662.84;;;25.94;100.00
29935;BME280;19905;53.370;-6.314;2023-10-08T12:48:09;101659.44;;;26.41;100.00
29935;BME280;19905;53.370;-6.314;2023-10-08T12:50:41;101651.09;;;25.65;100.00
29935;BME280;19905;53.370;-6.314;2023-10-08T12:53:12;101664.41;;;25.81;100.00
29935;BME280;19905;53.370;-6.314;2023-10-08T12:55:43;101672.53;;;25.81;100.00
29935;BME280;19905;53.370;-6.314;2023-10-08T12:58:13;101664.97;;;26.26;100.00
29935;BME280;19905;53.370;-6.314;2023-10-08T13:00:43;101672.84;;;24.84;nan
29935;BME280;19905;53.370;-6.314;2023-10-08T13:03:18;62149.53;;;-143.72;100.00
29935;BME280;19905;53.370;-6.314;2023-10-08T13:05:51;101650.16;;;26.50;nan
29935;BME280;19905;53.370;-6.314;2023-10-08T13:08:22;62149.53;;;-143.72;100.00
29935;BME280;19905;53.370;-6.314;2023-10-08T13:10:54;101641.19;;;26.91;nan
29935;BME280;19905;53.370;-6.314;2023-10-08T13:13:28;62149.53;;;-143.72;100.00
29935;BME280;19905;53.370;-6.314;2023-10-08T13:15:57;62149.53;;;-143.72;100.00
29935;BME280;19905;53.370;-6.314;2023-10-08T13:18:31;62149.53;;;-143.72;100.00
29935;BME280;19905;53.370;-6.314;2023-10-08T13:21:00;62149.53;;;-143.72;100.00
29935;BME280;19905;53.370;-6.314;2023-10-08T13:23:30;62149.53;;;-143.72;100.00
29935;BME280;19905;53.370;-6.314;2023-10-08T13:26:03;62149.53;;;-143.72;100.00
29935;BME280;19905;53.370;-6.314;2023-10-08T13:28:34;62149.53;;;-143.72;100.00
29935;BME280;19905;53.370;-6.314;2023-10-08T13:31:03;62149.53;;;-143.72;100.00
29935;BME280;19905;53.370;-6.314;2023-10-08T13:33:40;62149.53;;;-143.72;100.00
29935;BME280;19905;53.370;-6.314;2023-10-08T13:36:10;62149.53;;;-143.72;100.00
29935;BME280;19905;53.370;-6.314;2023-10-08T13:38:45;62149.53;;;-143.72;100.00
29935;BME280;19905;53.370;-6.314;2023-10-08T13:41:14;62149.53;;;-143.72;100.00
29935;BME280;19905;53.370;-6.314;2023-10-08T13:43:44;62149.53;;;-143.72;100.00
29935;BME280;19905;53.370;-6.314;2023-10-08T13:46:15;62149.53;;;-143.72;100.00
29935;BME280;19905;53.370;-6.314;2023-10-08T13:48:46;62149.53;;;-143.72;100.00
29935;BME280;19905;53.370;-6.314;2023-10-08T13:51:18;62149.53;;;-143.72;100.00
29935;BME280;19905;53.370;-6.314;2023-10-08T13:53:54;62149.53;;;-143.72;100.00
29935;BME280;19905;53.370;-6.314;2023-10-08T13:56:27;62149.53;;;-143.72;100.00
29935;BME280;19905;53.370;-6.314;2023-10-08T13:58:59;62149.53;;;-143.72;100.00
29935;BME280;19905;53.370;-6.314;2023-10-08T14:01:41;62149.53;;;-143.72;100.00
29935;BME280;19905;53.370;-6.314;2023-10-08T14:04:15;62149.53;;;-143.72;100.00
29935;BME280;19905;53.370;-6.314;2023-10-08T14:06:48;62149.53;;;-143.72;100.00
29935;BME280;19905;53.370;-6.314;2023-10-08T14:09:20;62149.53;;;-143.72;100.00
29935;BME280;19905;53.370;-6.314;2023-10-08T14:11:59;62149.53;;;-143.72;100.00
29935;BME280;19905;53.370;-6.314;2023-10-08T14:14:28;62149.53;;;-143.72;100.00
29935;BME280;19905;53.370;-6.314;2023-10-08T14:16:59;62149.53;;;-143.72;100.00
29935;BME280;19905;53.370;-6.314;2023-10-08T14:19:36;62149.53;;;-143.72;100.00
29935;BME280;19905;53.370;-6.314;2023-10-08T14:22:14;62149.53;;;-143.72;100.00
29935;BME280;19905;53.370;-6.314;2023-10-08T14:24:43;62149.53;;;-143.72;100.00
29935;BME280;19905;53.370;-6.314;2023-10-08T14:27:14;62149.53;;;-143.72;100.00
29935;BME280;19905;53.370;-6.314;2023-10-08T14:29:46;62149.53;;;-143.72;100.00
29935;BME280;19905;53.370;-6.314;2023-10-08T14:32:21;62149.53;;;-143.72;100.00
29935;BME280;19905;53.370;-6.314;2023-10-08T14:34:53;62149.53;;;-143.72;100.00
29935;BME280;19905;53.370;-6.314;2023-10-08T14:37:39;62149.53;;;-143.72;100.00
29935;BME280;19905;53.370;-6.314;2023-10-08T14:40:26;62149.53;;;-143.72;100.00
29935;BME280;19905;53.370;-6.314;2023-10-08T14:43:12;62149.53;;;-143.72;100.00
29935;BME280;19905;53.370;-6.314;2023-10-08T14:45:43;62149.53;;;-143.72;100.00
29935;BME280;19905;53.370;-6.314;2023-10-08T14:48:14;62149.53;;;-143.72;100.00
29935;BME280;19905;53.370;-6.314;2023-10-08T14:50:44;62149.53;;;-143.72;100.00
29935;BME280;19905;53.370;-6.314;2023-10-08T14:53:15;62149.53;;;-143.72;100.00
29935;BME280;19905;53.370;-6.314;2023-10-08T14:55:43;62149.53;;;-143.72;100.00